New Tripoli, Pennsylvania
Current Conditions -  °F | °C
As of 5:35 PM on Tuesday 21 Oct 2014 (Local Time) from KXLL Reporting Station
Scattered Clouds Scattered Clouds  
Wind Chill: 63°   Ceiling: Unl
Heat Index: 63°   Visibility: 10mi
Dew Point: 46°   Wind: 3mph
Humidity: 55%   Direction: 330°NNW
Pressure: 29.84"   Gusts: NA
Location:  40.68°N, 75.75°W
Report Text: KXLL 212135Z AUTO 33003KT 10SM SCT050 17/08 A2984 RMK AO2 LTG DSNT NE AND E
Loading
Personal Weather Stations






























Interactive Weather Map
Tropical Storm Tracking
New forecast layout! Learn more

10-Day Weather Forecast

Advertisements
Track Severe Weather on mobile